sensor_id;sensor_type;location;lat;lon;timestamp;P1;durP1;ratioP1;P2;durP2;ratioP2
68888;SDS011;55930;47.412;8.790;2023-09-18T00:00:17;7.05;;;2.90;;
68888;SDS011;55930;47.412;8.790;2023-09-18T00:06:58;11.83;;;4.23;;
68888;SDS011;55930;47.412;8.790;2023-09-18T00:13:38;8.40;;;3.38;;
68888;SDS011;55930;47.412;8.790;2023-09-18T00:17:03;10.95;;;3.15;;
68888;SDS011;55930;47.412;8.790;2023-09-18T00:20:24;8.65;;;2.67;;
68888;SDS011;55930;47.412;8.790;2023-09-18T00:23:47;11.55;;;2.92;;
68888;SDS011;55930;47.412;8.790;2023-09-18T00:30:28;14.17;;;3.40;;
68888;SDS011;55930;47.412;8.790;2023-09-18T00:37:08;9.53;;;2.63;;
68888;SDS011;55930;47.412;8.790;2023-09-18T00:40:32;8.68;;;2.50;;
68888;SDS011;55930;47.412;8.790;2023-09-18T00:47:12;10.23;;;2.95;;
68888;SDS011;55930;47.412;8.790;2023-09-18T00:50:35;6.55;;;2.97;;
68888;SDS011;55930;47.412;8.790;2023-09-18T00:53:56;11.55;;;2.90;;
68888;SDS011;55930;47.412;8.790;2023-09-18T01:00:37;11.95;;;2.92;;
68888;SDS011;55930;47.412;8.790;2023-09-18T01:04:00;8.27;;;2.50;;
68888;SDS011;55930;47.412;8.790;2023-09-18T01:10:48;6.47;;;2.73;;
68888;SDS011;55930;47.412;8.790;2023-09-18T01:14:29;10.82;;;3.03;;
68888;SDS011;55930;47.412;8.790;2023-09-18T01:17:53;12.43;;;2.95;;
68888;SDS011;55930;47.412;8.790;2023-09-18T01:24:37;5.32;;;2.72;;
68888;SDS011;55930;47.412;8.790;2023-09-18T01:27:59;6.32;;;2.55;;
68888;SDS011;55930;47.412;8.790;2023-09-18T01:34:47;5.95;;;2.90;;
68888;SDS011;55930;47.412;8.790;2023-09-18T01:38:10;7.65;;;3.03;;
68888;SDS011;55930;47.412;8.790;2023-09-18T01:41:31;6.45;;;2.40;;
68888;SDS011;55930;47.412;8.790;2023-09-18T01:44:53;6.55;;;2.72;;
68888;SDS011;55930;47.412;8.790;2023-09-18T01:48:14;5.05;;;2.67;;
68888;SDS011;55930;47.412;8.790;2023-09-18T01:54:54;5.78;;;2.60;;
68888;SDS011;55930;47.412;8.790;2023-09-18T02:01:35;7.53;;;2.37;;
68888;SDS011;55930;47.412;8.790;2023-09-18T02:04:57;7.63;;;3.13;;
68888;SDS011;55930;47.412;8.790;2023-09-18T02:11:39;7.57;;;2.63;;
68888;SDS011;55930;47.412;8.790;2023-09-18T02:15:01;6.45;;;2.78;;
68888;SDS011;55930;47.412;8.790;2023-09-18T02:18:26;5.38;;;2.40;;
68888;SDS011;55930;47.412;8.790;2023-09-18T02:25:07;7.73;;;3.07;;
68888;SDS011;55930;47.412;8.790;2023-09-18T02:28:30;7.40;;;2.80;;
68888;SDS011;55930;47.412;8.790;2023-09-18T02:35:11;12.23;;;3.17;;
68888;SDS011;55930;47.412;8.790;2023-09-18T02:41:53;7.20;;;2.60;;
68888;SDS011;55930;47.412;8.790;2023-09-18T02:48:33;8.17;;;2.93;;
68888;SDS011;55930;47.412;8.790;2023-09-18T02:55:14;8.03;;;2.30;;
68888;SDS011;55930;47.412;8.790;2023-09-18T03:01:55;5.28;;;3.00;;
68888;SDS011;55930;47.412;8.790;2023-09-18T03:08:35;11.32;;;3.10;;
68888;SDS011;55930;47.412;8.790;2023-09-18T03:15:16;7.87;;;3.37;;
68888;SDS011;55930;47.412;8.790;2023-09-18T03:18:37;7.15;;;3.10;;
68888;SDS011;55930;47.412;8.790;2023-09-18T03:25:17;6.18;;;2.80;;
68888;SDS011;55930;47.412;8.790;2023-09-18T03:31:58;10.40;;;3.92;;
68888;SDS011;55930;47.412;8.790;2023-09-18T03:38:40;8.13;;;3.05;;
68888;SDS011;55930;47.412;8.790;2023-09-18T03:45:20;6.93;;;2.88;;
68888;SDS011;55930;47.412;8.790;2023-09-18T03:52:04;11.90;;;4.03;;
68888;SDS011;55930;47.412;8.790;2023-09-18T03:58:45;11.80;;;2.80;;
68888;SDS011;55930;47.412;8.790;2023-09-18T04:02:09;7.88;;;2.45;;
68888;SDS011;55930;47.412;8.790;2023-09-18T04:08:50;10.03;;;2.87;;
68888;SDS011;55930;47.412;8.790;2023-09-18T04:12:11;8.45;;;2.90;;
68888;SDS011;55930;47.412;8.790;2023-09-18T04:18:52;8.63;;;3.07;;
68888;SDS011;55930;47.412;8.790;2023-09-18T04:25:32;9.80;;;2.83;;
68888;SDS011;55930;47.412;8.790;2023-09-18T04:28:56;6.45;;;3.00;;
68888;SDS011;55930;47.412;8.790;2023-09-18T04:32:17;6.72;;;2.72;;
68888;SDS011;55930;47.412;8.790;2023-09-18T04:39:01;11.07;;;3.03;;
68888;SDS011;55930;47.412;8.790;2023-09-18T04:42:23;8.52;;;2.63;;
68888;SDS011;55930;47.412;8.790;2023-09-18T04:49:04;8.47;;;2.60;;
68888;SDS011;55930;47.412;8.790;2023-09-18T04:55:45;8.73;;;2.50;;
68888;SDS011;55930;47.412;8.790;2023-09-18T04:59:09;6.03;;;2.63;;
68888;SDS011;55930;47.412;8.790;2023-09-18T05:05:50;9.97;;;3.10;;
68888;SDS011;55930;47.412;8.790;2023-09-18T05:12:31;8.90;;;2.87;;
68888;SDS011;55930;47.412;8.790;2023-09-18T05:15:52;8.30;;;3.22;;
68888;SDS011;55930;47.412;8.790;2023-09-18T05:22:32;8.88;;;3.20;;
68888;SDS011;55930;47.412;8.790;2023-09-18T05:29:13;10.80;;;3.33;;
68888;SDS011;55930;47.412;8.790;2023-09-18T05:32:35;11.95;;;3.58;;
68888;SDS011;55930;47.412;8.790;2023-09-18T05:35:58;10.85;;;4.72;;
68888;SDS011;55930;47.412;8.790;2023-09-18T05:42:39;6.83;;;3.30;;
68888;SDS011;55930;47.412;8.790;2023-09-18T05:46:05;11.65;;;2.92;;
68888;SDS011;55930;47.412;8.790;2023-09-18T05:52:47;8.32;;;3.47;;
68888;SDS011;55930;47.412;8.790;2023-09-18T05:56:11;8.77;;;2.92;;
68888;SDS011;55930;47.412;8.790;2023-09-18T06:02:55;9.50;;;3.60;;
68888;SDS011;55930;47.412;8.790;2023-09-18T06:06:15;9.05;;;2.70;;
68888;SDS011;55930;47.412;8.790;2023-09-18T06:12:56;6.43;;;2.40;;
68888;SDS011;55930;47.412;8.790;2023-09-18T06:19:36;8.00;;;2.90;;
68888;SDS011;55930;47.412;8.790;2023-09-18T06:22:59;8.57;;;3.78;;
68888;SDS011;55930;47.412;8.790;2023-09-18T06:29:41;8.35;;;3.00;;
68888;SDS011;55930;47.412;8.790;2023-09-18T06:33:03;8.25;;;3.67;;
68888;SDS011;55930;47.412;8.790;2023-09-18T06:36:26;9.50;;;3.50;;
68888;SDS011;55930;47.412;8.790;2023-09-18T06:43:09;9.18;;;3.40;;
68888;SDS011;55930;47.412;8.790;2023-09-18T06:49:50;9.07;;;3.97;;
68888;SDS011;55930;47.412;8.790;2023-09-18T06:53:11;11.23;;;3.67;;
68888;SDS011;55930;47.412;8.790;2023-09-18T06:59:52;11.47;;;3.87;;
68888;SDS011;55930;47.412;8.790;2023-09-18T07:03:15;8.00;;;3.30;;
68888;SDS011;55930;47.412;8.790;2023-09-18T07:09:57;10.70;;;3.10;;
68888;SDS011;55930;47.412;8.790;2023-09-18T07:13:18;5.60;;;2.55;;
68888;SDS011;55930;47.412;8.790;2023-09-18T07:16:38;8.38;;;3.20;;
68888;SDS011;55930;47.412;8.790;2023-09-18T07:23:20;8.13;;;3.13;;
68888;SDS011;55930;47.412;8.790;2023-09-18T07:26:43;8.65;;;3.47;;
68888;SDS011;55930;47.412;8.790;2023-09-18T07:30:07;11.18;;;4.15;;
68888;SDS011;55930;47.412;8.790;2023-09-18T07:33:27;7.72;;;3.10;;
68888;SDS011;55930;47.412;8.790;2023-09-18T07:40:14;6.30;;;3.30;;
68888;SDS011;55930;47.412;8.790;2023-09-18T07:43:35;8.45;;;2.97;;
68888;SDS011;55930;47.412;8.790;2023-09-18T07:46:56;10.65;;;4.00;;
68888;SDS011;55930;47.412;8.790;2023-09-18T07:53:38;6.75;;;3.00;;
68888;SDS011;55930;47.412;8.790;2023-09-18T07:56:59;11.52;;;3.55;;
68888;SDS011;55930;47.412;8.790;2023-09-18T08:00:20;9.95;;;3.22;;
68888;SDS011;55930;47.412;8.790;2023-09-18T08:03:42;8.00;;;3.10;;
68888;SDS011;55930;47.412;8.790;2023-09-18T08:07:03;12.13;;;3.88;;
68888;SDS011;55930;47.412;8.790;2023-09-18T08:10:26;7.88;;;2.83;;
68888;SDS011;55930;47.412;8.790;2023-09-18T08:13:47;9.20;;;3.50;;
68888;SDS011;55930;47.412;8.790;2023-09-18T08:20:27;12.43;;;3.63;;
68888;SDS011;55930;47.412;8.790;2023-09-18T08:23:48;10.30;;;2.83;;
68888;SDS011;55930;47.412;8.790;2023-09-18T08:27:09;10.85;;;3.95;;
68888;SDS011;55930;47.412;8.790;2023-09-18T08:30:31;8.00;;;3.20;;
68888;SDS011;55930;47.412;8.790;2023-09-18T08:33:52;10.45;;;2.83;;
68888;SDS011;55930;47.412;8.790;2023-09-18T08:40:33;18.53;;;3.47;;
68888;SDS011;55930;47.412;8.790;2023-09-18T08:43:57;12.85;;;2.80;;
68888;SDS011;55930;47.412;8.790;2023-09-18T08:47:20;6.20;;;2.08;;
68888;SDS011;55930;47.412;8.790;2023-09-18T08:50:43;8.45;;;2.42;;
68888;SDS011;55930;47.412;8.790;2023-09-18T08:54:05;6.82;;;2.13;;
68888;SDS011;55930;47.412;8.790;2023-09-18T08:57:26;6.25;;;2.85;;
68888;SDS011;55930;47.412;8.790;2023-09-18T09:00:47;7.88;;;2.55;;
68888;SDS011;55930;47.412;8.790;2023-09-18T09:04:10;7.30;;;2.70;;
68888;SDS011;55930;47.412;8.790;2023-09-18T09:10:53;6.90;;;2.20;;
68888;SDS011;55930;47.412;8.790;2023-09-18T09:14:14;6.32;;;2.50;;
68888;SDS011;55930;47.412;8.790;2023-09-18T09:17:38;5.13;;;1.83;;
68888;SDS011;55930;47.412;8.790;2023-09-18T09:28:05;5.15;;;1.77;;
68888;SDS011;55930;47.412;8.790;2023-09-18T09:31:28;6.50;;;2.28;;
68888;SDS011;55930;47.412;8.790;2023-09-18T09:34:50;4.78;;;1.90;;
68888;SDS011;55930;47.412;8.790;2023-09-18T09:38:20;4.80;;;1.83;;
68888;SDS011;55930;47.412;8.790;2023-09-18T09:41:46;3.72;;;1.50;;
68888;SDS011;55930;47.412;8.790;2023-09-18T09:45:11;4.43;;;1.80;;
68888;SDS011;55930;47.412;8.790;2023-09-18T09:48:33;5.50;;;1.98;;
68888;SDS011;55930;47.412;8.790;2023-09-18T09:55:24;3.47;;;1.53;;
68888;SDS011;55930;47.412;8.790;2023-09-18T09:59:02;3.95;;;1.80;;
68888;SDS011;55930;47.412;8.790;2023-09-18T10:02:25;4.50;;;1.80;;
68888;SDS011;55930;47.412;8.790;2023-09-18T10:09:12;4.45;;;1.50;;
68888;SDS011;55930;47.412;8.790;2023-09-18T10:12:34;3.90;;;1.55;;
68888;SDS011;55930;47.412;8.790;2023-09-18T10:15:56;4.57;;;2.20;;
68888;SDS011;55930;47.412;8.790;2023-09-18T10:19:21;6.28;;;1.70;;
68888;SDS011;55930;47.412;8.790;2023-09-18T10:22:53;3.35;;;1.42;;
68888;SDS011;55930;47.412;8.790;2023-09-18T10:26:19;2.65;;;1.38;;
68888;SDS011;55930;47.412;8.790;2023-09-18T10:29:49;2.65;;;1.30;;
68888;SDS011;55930;47.412;8.790;2023-09-18T10:33:11;3.85;;;1.40;;
68888;SDS011;55930;47.412;8.790;2023-09-18T10:36:35;5.40;;;1.63;;
68888;SDS011;55930;47.412;8.790;2023-09-18T10:39:57;3.63;;;1.25;;
68888;SDS011;55930;47.412;8.790;2023-09-18T10:43:20;3.20;;;1.38;;
68888;SDS011;55930;47.412;8.790;2023-09-18T10:50:01;7.83;;;5.40;;
68888;SDS011;55930;47.412;8.790;2023-09-18T10:56:47;2.90;;;1.45;;
68888;SDS011;55930;47.412;8.790;2023-09-18T11:00:09;3.08;;;1.17;;
68888;SDS011;55930;47.412;8.790;2023-09-18T11:03:34;5.22;;;0.95;;
68888;SDS011;55930;47.412;8.790;2023-09-18T11:10:27;3.03;;;1.00;;
68888;SDS011;55930;47.412;8.790;2023-09-18T11:13:48;2.78;;;0.90;;
68888;SDS011;55930;47.412;8.790;2023-09-18T11:21:06;2.67;;;1.00;;
68888;SDS011;55930;47.412;8.790;2023-09-18T11:24:30;1.98;;;1.00;;
68888;SDS011;55930;47.412;8.790;2023-09-18T11:27:53;1.15;;;1.00;;
68888;SDS011;55930;47.412;8.790;2023-09-18T11:31:16;2.95;;;0.90;;
68888;SDS011;55930;47.412;8.790;2023-09-18T11:34:42;1.95;;;0.70;;
68888;SDS011;55930;47.412;8.790;2023-09-18T11:38:03;2.60;;;0.98;;
68888;SDS011;55930;47.412;8.790;2023-09-18T11:41:28;3.05;;;1.00;;
68888;SDS011;55930;47.412;8.790;2023-09-18T11:44:51;2.88;;;1.20;;
68888;SDS011;55930;47.412;8.790;2023-09-18T11:48:11;3.15;;;1.00;;
68888;SDS011;55930;47.412;8.790;2023-09-18T11:51:34;2.45;;;0.88;;
68888;SDS011;55930;47.412;8.790;2023-09-18T11:54:56;1.75;;;0.90;;
68888;SDS011;55930;47.412;8.790;2023-09-18T11:58:17;1.70;;;0.90;;
68888;SDS011;55930;47.412;8.790;2023-09-18T12:01:43;2.15;;;0.90;;
68888;SDS011;55930;47.412;8.790;2023-09-18T12:05:09;5.10;;;1.20;;
68888;SDS011;55930;47.412;8.790;2023-09-18T12:08:31;5.20;;;1.10;;
68888;SDS011;55930;47.412;8.790;2023-09-18T12:11:52;2.08;;;1.10;;
68888;SDS011;55930;47.412;8.790;2023-09-18T12:15:17;1.85;;;0.93;;
68888;SDS011;55930;47.412;8.790;2023-09-18T12:18:44;2.58;;;0.82;;
68888;SDS011;55930;47.412;8.790;2023-09-18T12:22:08;3.13;;;1.00;;
68888;SDS011;55930;47.412;8.790;2023-09-18T12:25:28;3.60;;;0.90;;
68888;SDS011;55930;47.412;8.790;2023-09-18T12:28:49;3.47;;;1.23;;
68888;SDS011;55930;47.412;8.790;2023-09-18T12:32:10;2.58;;;1.20;;
68888;SDS011;55930;47.412;8.790;2023-09-18T12:35:33;1.70;;;0.93;;
68888;SDS011;55930;47.412;8.790;2023-09-18T12:38:57;2.55;;;0.90;;
68888;SDS011;55930;47.412;8.790;2023-09-18T12:42:21;2.22;;;1.45;;
68888;SDS011;55930;47.412;8.790;2023-09-18T12:45:42;2.28;;;1.08;;
68888;SDS011;55930;47.412;8.790;2023-09-18T12:49:18;2.85;;;1.02;;
68888;SDS011;55930;47.412;8.790;2023-09-18T12:52:44;2.70;;;1.20;;
68888;SDS011;55930;47.412;8.790;2023-09-18T12:56:11;0.68;;;0.57;;
68888;SDS011;55930;47.412;8.790;2023-09-18T12:59:33;2.20;;;1.02;;
68888;SDS011;55930;47.412;8.790;2023-09-18T13:02:55;1.63;;;1.00;;
68888;SDS011;55930;47.412;8.790;2023-09-18T13:06:17;3.58;;;1.08;;
68888;SDS011;55930;47.412;8.790;2023-09-18T13:09:40;1.20;;;0.82;;
68888;SDS011;55930;47.412;8.790;2023-09-18T13:13:01;3.55;;;0.95;;
68888;SDS011;55930;47.412;8.790;2023-09-18T13:16:26;1.92;;;0.85;;
68888;SDS011;55930;47.412;8.790;2023-09-18T13:19:47;1.55;;;0.88;;
68888;SDS011;55930;47.412;8.790;2023-09-18T13:23:07;3.33;;;0.85;;
68888;SDS011;55930;47.412;8.790;2023-09-18T13:26:28;2.80;;;0.95;;
68888;SDS011;55930;47.412;8.790;2023-09-18T13:29:49;1.50;;;0.80;;
68888;SDS011;55930;47.412;8.790;2023-09-18T13:33:10;3.03;;;1.10;;
68888;SDS011;55930;47.412;8.790;2023-09-18T13:36:32;1.92;;;0.90;;
68888;SDS011;55930;47.412;8.790;2023-09-18T13:39:53;2.47;;;1.02;;
68888;SDS011;55930;47.412;8.790;2023-09-18T13:43:14;2.50;;;0.95;;
68888;SDS011;55930;47.412;8.790;2023-09-18T13:46:36;3.25;;;0.80;;
68888;SDS011;55930;47.412;8.790;2023-09-18T13:49:57;1.95;;;0.90;;
68888;SDS011;55930;47.412;8.790;2023-09-18T13:53:19;2.28;;;0.88;;
68888;SDS011;55930;47.412;8.790;2023-09-18T13:56:46;1.10;;;0.70;;
68888;SDS011;55930;47.412;8.790;2023-09-18T14:00:07;3.58;;;1.00;;
68888;SDS011;55930;47.412;8.790;2023-09-18T14:03:31;1.02;;;0.73;;
68888;SDS011;55930;47.412;8.790;2023-09-18T14:06:52;3.15;;;1.20;;
68888;SDS011;55930;47.412;8.790;2023-09-18T14:10:12;1.58;;;0.80;;
68888;SDS011;55930;47.412;8.790;2023-09-18T14:13:33;2.20;;;1.20;;
68888;SDS011;55930;47.412;8.790;2023-09-18T14:16:53;1.30;;;0.73;;
68888;SDS011;55930;47.412;8.790;2023-09-18T14:20:14;2.15;;;0.95;;
68888;SDS011;55930;47.412;8.790;2023-09-18T14:23:38;3.00;;;1.10;;
68888;SDS011;55930;47.412;8.790;2023-09-18T14:26:58;1.63;;;1.00;;
68888;SDS011;55930;47.412;8.790;2023-09-18T14:30:19;2.95;;;1.05;;
68888;SDS011;55930;47.412;8.790;2023-09-18T14:33:39;1.85;;;1.00;;
68888;SDS011;55930;47.412;8.790;2023-09-18T14:37:03;2.15;;;1.02;;
68888;SDS011;55930;47.412;8.790;2023-09-18T14:40:28;1.65;;;0.80;;
68888;SDS011;55930;47.412;8.790;2023-09-18T14:43:52;1.38;;;0.80;;
68888;SDS011;55930;47.412;8.790;2023-09-18T14:47:13;2.05;;;0.82;;
68888;SDS011;55930;47.412;8.790;2023-09-18T14:50:34;2.78;;;0.85;;
68888;SDS011;55930;47.412;8.790;2023-09-18T14:53:54;2.53;;;1.10;;
68888;SDS011;55930;47.412;8.790;2023-09-18T14:57:15;2.85;;;1.02;;
68888;SDS011;55930;47.412;8.790;2023-09-18T15:00:36;2.00;;;1.17;;
68888;SDS011;55930;47.412;8.790;2023-09-18T15:04:02;1.88;;;1.00;;
68888;SDS011;55930;47.412;8.790;2023-09-18T15:07:22;2.70;;;0.98;;
68888;SDS011;55930;47.412;8.790;2023-09-18T15:10:42;1.30;;;0.70;;
68888;SDS011;55930;47.412;8.790;2023-09-18T15:14:03;1.25;;;0.73;;
68888;SDS011;55930;47.412;8.790;2023-09-18T15:17:23;2.80;;;1.00;;
68888;SDS011;55930;47.412;8.790;2023-09-18T15:20:45;1.67;;;0.95;;
68888;SDS011;55930;47.412;8.790;2023-09-18T15:24:06;1.70;;;0.80;;
68888;SDS011;55930;47.412;8.790;2023-09-18T15:27:27;1.00;;;0.65;;
68888;SDS011;55930;47.412;8.790;2023-09-18T15:30:49;3.20;;;0.90;;
68888;SDS011;55930;47.412;8.790;2023-09-18T15:34:10;2.90;;;1.00;;
68888;SDS011;55930;47.412;8.790;2023-09-18T15:37:33;4.60;;;0.80;;
68888;SDS011;55930;47.412;8.790;2023-09-18T15:40:53;1.73;;;0.90;;
68888;SDS011;55930;47.412;8.790;2023-09-18T15:44:16;1.42;;;0.80;;
68888;SDS011;55930;47.412;8.790;2023-09-18T15:47:39;1.55;;;0.80;;
68888;SDS011;55930;47.412;8.790;2023-09-18T15:51:02;2.97;;;1.13;;
68888;SDS011;55930;47.412;8.790;2023-09-18T15:54:25;1.77;;;0.77;;
68888;SDS011;55930;47.412;8.790;2023-09-18T15:57:46;2.00;;;1.02;;
68888;SDS011;55930;47.412;8.790;2023-09-18T16:01:07;1.55;;;0.85;;
68888;SDS011;55930;47.412;8.790;2023-09-18T16:04:29;9.10;;;1.30;;
68888;SDS011;55930;47.412;8.790;2023-09-18T16:07:50;2.08;;;1.13;;
68888;SDS011;55930;47.412;8.790;2023-09-18T16:11:18;2.45;;;0.90;;
68888;SDS011;55930;47.412;8.790;2023-09-18T16:14:39;1.67;;;0.80;;
68888;SDS011;55930;47.412;8.790;2023-09-18T16:18:01;0.90;;;0.80;;
68888;SDS011;55930;47.412;8.790;2023-09-18T16:21:24;1.35;;;0.80;;
68888;SDS011;55930;47.412;8.790;2023-09-18T16:24:44;1.23;;;0.75;;
68888;SDS011;55930;47.412;8.790;2023-09-18T16:28:04;1.10;;;0.77;;
68888;SDS011;55930;47.412;8.790;2023-09-18T16:31:26;2.17;;;0.70;;
68888;SDS011;55930;47.412;8.790;2023-09-18T16:34:48;1.65;;;0.75;;
68888;SDS011;55930;47.412;8.790;2023-09-18T16:38:09;3.05;;;0.98;;
68888;SDS011;55930;47.412;8.790;2023-09-18T16:41:30;1.95;;;1.00;;
68888;SDS011;55930;47.412;8.790;2023-09-18T16:44:50;1.05;;;0.75;;
68888;SDS011;55930;47.412;8.790;2023-09-18T16:48:10;1.55;;;0.68;;
68888;SDS011;55930;47.412;8.790;2023-09-18T16:51:31;6.07;;;0.90;;
68888;SDS011;55930;47.412;8.790;2023-09-18T16:54:51;1.67;;;0.70;;
68888;SDS011;55930;47.412;8.790;2023-09-18T16:58:12;2.03;;;1.00;;
68888;SDS011;55930;47.412;8.790;2023-09-18T17:01:32;1.38;;;0.80;;
68888;SDS011;55930;47.412;8.790;2023-09-18T17:04:53;3.88;;;0.77;;
68888;SDS011;55930;47.412;8.790;2023-09-18T17:08:13;2.50;;;0.80;;
68888;SDS011;55930;47.412;8.790;2023-09-18T17:11:36;1.08;;;0.60;;
68888;SDS011;55930;47.412;8.790;2023-09-18T17:14:56;2.05;;;0.80;;
68888;SDS011;55930;47.412;8.790;2023-09-18T17:18:17;2.15;;;0.98;;
68888;SDS011;55930;47.412;8.790;2023-09-18T17:21:39;5.50;;;1.10;;
68888;SDS011;55930;47.412;8.790;2023-09-18T17:24:59;3.33;;;0.85;;
68888;SDS011;55930;47.412;8.790;2023-09-18T17:28:20;0.82;;;0.52;;
68888;SDS011;55930;47.412;8.790;2023-09-18T17:31:40;4.57;;;0.82;;
68888;SDS011;55930;47.412;8.790;2023-09-18T17:35:01;2.70;;;0.73;;
68888;SDS011;55930;47.412;8.790;2023-09-18T17:38:21;2.22;;;0.88;;
68888;SDS011;55930;47.412;8.790;2023-09-18T17:41:42;2.58;;;0.85;;
68888;SDS011;55930;47.412;8.790;2023-09-18T17:45:04;1.83;;;0.75;;
68888;SDS011;55930;47.412;8.790;2023-09-18T17:48:24;5.68;;;0.98;;
68888;SDS011;55930;47.412;8.790;2023-09-18T17:51:45;1.80;;;0.40;;
68888;SDS011;55930;47.412;8.790;2023-09-18T17:55:06;2.75;;;0.85;;
68888;SDS011;55930;47.412;8.790;2023-09-18T17:58:28;1.05;;;0.60;;
68888;SDS011;55930;47.412;8.790;2023-09-18T18:01:48;2.05;;;0.75;;
68888;SDS011;55930;47.412;8.790;2023-09-18T18:05:08;1.98;;;0.88;;
68888;SDS011;55930;47.412;8.790;2023-09-18T18:08:29;2.13;;;0.65;;
68888;SDS011;55930;47.412;8.790;2023-09-18T18:11:49;5.22;;;0.75;;
68888;SDS011;55930;47.412;8.790;2023-09-18T18:18:32;0.77;;;0.60;;
68888;SDS011;55930;47.412;8.790;2023-09-18T18:25:13;2.67;;;0.80;;
68888;SDS011;55930;47.412;8.790;2023-09-18T18:28:38;2.33;;;0.63;;
68888;SDS011;55930;47.412;8.790;2023-09-18T18:35:19;2.50;;;0.90;;
68888;SDS011;55930;47.412;8.790;2023-09-18T18:38:42;3.30;;;1.42;;
68888;SDS011;55930;47.412;8.790;2023-09-18T18:45:24;1.15;;;0.70;;
68888;SDS011;55930;47.412;8.790;2023-09-18T18:48:46;2.38;;;0.82;;
68888;SDS011;55930;47.412;8.790;2023-09-18T18:55:27;1.40;;;0.90;;
68888;SDS011;55930;47.412;8.790;2023-09-18T18:58:48;2.08;;;0.90;;
68888;SDS011;55930;47.412;8.790;2023-09-18T19:05:30;1.80;;;0.77;;
68888;SDS011;55930;47.412;8.790;2023-09-18T19:08:50;1.83;;;0.90;;
68888;SDS011;55930;47.412;8.790;2023-09-18T19:15:31;2.37;;;1.00;;
68888;SDS011;55930;47.412;8.790;2023-09-18T19:22:12;5.33;;;1.17;;
68888;SDS011;55930;47.412;8.790;2023-09-18T19:28:52;4.27;;;1.27;;
68888;SDS011;55930;47.412;8.790;2023-09-18T19:32:14;2.33;;;0.82;;
68888;SDS011;55930;47.412;8.790;2023-09-18T19:35:35;2.03;;;0.90;;
68888;SDS011;55930;47.412;8.790;2023-09-18T19:38:57;2.88;;;1.10;;
68888;SDS011;55930;47.412;8.790;2023-09-18T19:45:37;0.90;;;0.80;;
68888;SDS011;55930;47.412;8.790;2023-09-18T19:52:18;3.57;;;1.00;;
68888;SDS011;55930;47.412;8.790;2023-09-18T19:59:01;5.60;;;2.60;;
68888;SDS011;55930;47.412;8.790;2023-09-18T20:02:21;1.75;;;1.00;;
68888;SDS011;55930;47.412;8.790;2023-09-18T20:09:03;4.68;;;1.10;;
68888;SDS011;55930;47.412;8.790;2023-09-18T20:12:25;6.20;;;1.42;;
68888;SDS011;55930;47.412;8.790;2023-09-18T20:15:47;5.03;;;1.42;;
68888;SDS011;55930;47.412;8.790;2023-09-18T20:19:07;1.50;;;1.00;;
68888;SDS011;55930;47.412;8.790;2023-09-18T20:22:34;2.00;;;0.98;;
68888;SDS011;55930;47.412;8.790;2023-09-18T20:25:56;1.77;;;1.00;;
68888;SDS011;55930;47.412;8.790;2023-09-18T20:29:20;4.05;;;1.00;;
68888;SDS011;55930;47.412;8.790;2023-09-18T20:32:42;2.92;;;1.15;;
68888;SDS011;55930;47.412;8.790;2023-09-18T20:36:03;3.08;;;0.90;;
68888;SDS011;55930;47.412;8.790;2023-09-18T20:39:24;2.45;;;1.08;;
68888;SDS011;55930;47.412;8.790;2023-09-18T20:46:04;1.93;;;0.90;;
68888;SDS011;55930;47.412;8.790;2023-09-18T20:49:26;4.07;;;1.05;;
68888;SDS011;55930;47.412;8.790;2023-09-18T20:52:46;2.83;;;0.98;;
68888;SDS011;55930;47.412;8.790;2023-09-18T20:59:27;1.97;;;0.97;;
68888;SDS011;55930;47.412;8.790;2023-09-18T21:02:47;2.00;;;0.90;;
68888;SDS011;55930;47.412;8.790;2023-09-18T21:09:28;3.95;;;1.08;;
68888;SDS011;55930;47.412;8.790;2023-09-18T21:16:08;4.40;;;1.10;;
68888;SDS011;55930;47.412;8.790;2023-09-18T21:19:29;2.13;;;1.10;;
68888;SDS011;55930;47.412;8.790;2023-09-18T21:22:51;1.65;;;1.00;;
68888;SDS011;55930;47.412;8.790;2023-09-18T21:26:11;3.15;;;1.02;;
68888;SDS011;55930;47.412;8.790;2023-09-18T21:29:32;4.15;;;1.30;;
68888;SDS011;55930;47.412;8.790;2023-09-18T21:36:18;3.15;;;1.15;;
68888;SDS011;55930;47.412;8.790;2023-09-18T21:39:40;2.22;;;1.08;;
68888;SDS011;55930;47.412;8.790;2023-09-18T21:43:00;1.60;;;1.20;;
68888;SDS011;55930;47.412;8.790;2023-09-18T21:46:21;4.50;;;1.30;;
68888;SDS011;55930;47.412;8.790;2023-09-18T21:49:42;3.45;;;1.42;;
68888;SDS011;55930;47.412;8.790;2023-09-18T21:53:03;3.13;;;1.00;;
68888;SDS011;55930;47.412;8.790;2023-09-18T21:56:25;3.13;;;1.30;;
68888;SDS011;55930;47.412;8.790;2023-09-18T21:59:45;3.72;;;1.35;;
68888;SDS011;55930;47.412;8.790;2023-09-18T22:03:08;6.05;;;1.48;;
68888;SDS011;55930;47.412;8.790;2023-09-18T22:06:29;2.20;;;1.10;;
68888;SDS011;55930;47.412;8.790;2023-09-18T22:09:52;4.72;;;1.40;;
68888;SDS011;55930;47.412;8.790;2023-09-18T22:13:16;1.48;;;1.10;;
68888;SDS011;55930;47.412;8.790;2023-09-18T22:19:58;3.15;;;1.10;;
68888;SDS011;55930;47.412;8.790;2023-09-18T22:26:39;2.38;;;1.30;;
68888;SDS011;55930;47.412;8.790;2023-09-18T22:29:59;3.97;;;1.88;;
68888;SDS011;55930;47.412;8.790;2023-09-18T22:33:22;3.10;;;1.30;;
68888;SDS011;55930;47.412;8.790;2023-09-18T22:36:43;1.80;;;1.25;;
68888;SDS011;55930;47.412;8.790;2023-09-18T22:55:27;3.03;;;1.30;;
68888;SDS011;55930;47.412;8.790;2023-09-18T22:58:49;2.05;;;1.13;;
68888;SDS011;55930;47.412;8.790;2023-09-18T23:02:09;3.93;;;1.40;;
68888;SDS011;55930;47.412;8.790;2023-09-18T23:05:30;2.72;;;1.38;;
68888;SDS011;55930;47.412;8.790;2023-09-18T23:08:53;4.55;;;1.63;;
68888;SDS011;55930;47.412;8.790;2023-09-18T23:15:34;2.23;;;1.63;;
68888;SDS011;55930;47.412;8.790;2023-09-18T23:18:54;2.17;;;1.33;;
68888;SDS011;55930;47.412;8.790;2023-09-18T23:22:15;2.65;;;1.60;;
68888;SDS011;55930;47.412;8.790;2023-09-18T23:29:01;3.22;;;1.23;;
68888;SDS011;55930;47.412;8.790;2023-09-18T23:32:21;1.80;;;1.30;;
68888;SDS011;55930;47.412;8.790;2023-09-18T23:35:44;2.30;;;1.27;;
68888;SDS011;55930;47.412;8.790;2023-09-18T23:39:05;2.20;;;1.37;;
68888;SDS011;55930;47.412;8.790;2023-09-18T23:42:27;3.58;;;1.50;;
68888;SDS011;55930;47.412;8.790;2023-09-18T23:45:48;4.57;;;1.45;;
68888;SDS011;55930;47.412;8.790;2023-09-18T23:49:11;3.42;;;1.63;;
68888;SDS011;55930;47.412;8.790;2023-09-18T23:52:31;2.10;;;1.30;;
68888;SDS011;55930;47.412;8.790;2023-09-18T23:55:51;1.83;;;0.97;;
68888;SDS011;55930;47.412;8.790;2023-09-18T23:59:12;2.45;;;1.30;;
